createdAt,value
2023-01-26T00:01:17.430Z,101212.63
2023-01-26T00:03:44.997Z,101212.63
2023-01-26T00:06:15.201Z,101212.63
2023-01-26T00:08:48.592Z,101218.13
2023-01-26T00:11:17.878Z,101212.63
2023-01-26T00:13:44.893Z,101208.63
2023-01-26T00:16:15.619Z,101207.59
2023-01-26T00:18:43.157Z,101209.28
2023-01-26T00:21:21.151Z,101213.28
2023-01-26T00:23:49.343Z,101204.50
2023-01-26T00:26:18.418Z,101192.50
2023-01-26T00:28:45.058Z,101199.56
2023-01-26T00:31:20.362Z,101196.69
2023-01-26T00:33:47.063Z,101188.03
2023-01-26T00:36:13.740Z,101190.50
2023-01-26T00:38:40.494Z,101184.38
2023-01-26T00:41:09.313Z,101178.22
2023-01-26T00:43:35.918Z,101173.81
2023-01-26T00:46:02.530Z,101175.75
2023-01-26T00:48:29.102Z,101174.56
2023-01-26T00:50:55.688Z,101181.47
2023-01-26T00:53:22.237Z,101169.97
2023-01-26T00:55:48.857Z,101175.75
2023-01-26T00:58:15.441Z,101175.81
2023-01-26T01:00:42.084Z,101175.31
2023-01-26T01:03:08.733Z,101173.81
2023-01-26T01:05:35.667Z,101167.19
2023-01-26T01:08:02.540Z,101177.72
2023-01-26T01:10:29.452Z,101180.47
2023-01-26T01:12:56.614Z,101168.34
2023-01-26T01:15:24.321Z,101175.81
2023-01-26T01:17:51.178Z,101166.09
2023-01-26T01:20:17.887Z,101160.44
2023-01-26T01:22:46.550Z,101153.28
2023-01-26T01:25:13.309Z,101156.63
2023-01-26T01:27:39.953Z,101150.25
2023-01-26T01:30:08.236Z,101148.09
2023-01-26T01:32:36.185Z,101158.13
2023-01-26T01:35:03.120Z,101166.50
2023-01-26T01:37:30.567Z,101158.78
2023-01-26T01:39:57.219Z,101161.16
2023-01-26T01:42:24.342Z,101159.13
2023-01-26T01:45:29.451Z,101163.47
2023-01-26T01:47:59.301Z,101164.91
2023-01-26T01:50:27.521Z,101160.28
2023-01-26T01:52:55.624Z,101163.84
2023-01-26T01:55:24.670Z,101156.25
2023-01-26T01:57:55.531Z,101163.72
2023-01-26T02:00:23.724Z,101160.44
2023-01-26T02:03:11.354Z,101160.53
2023-01-26T02:05:59.591Z,101151.59
2023-01-26T02:08:33.763Z,101157.06
2023-01-26T02:11:10.791Z,101157.25
2023-01-26T02:13:37.806Z,101150.31
2023-01-26T02:16:04.868Z,101150.94
2023-01-26T02:18:31.603Z,101157.13
2023-01-26T02:21:04.805Z,101153.69
2023-01-26T02:27:00.736Z,101146.41
2023-01-26T02:29:28.864Z,101132.31
2023-01-26T02:31:56.291Z,101141.69
2023-01-26T02:34:25.198Z,101134.72
2023-01-26T02:36:59.183Z,101144.41
2023-01-26T02:39:48.779Z,101137.44
2023-01-26T02:42:34.973Z,101134.25
2023-01-26T02:45:01.639Z,101133.78
2023-01-26T02:47:29.996Z,101138.97
2023-01-26T02:49:58.271Z,101133.69
2023-01-26T02:52:27.892Z,101133.66
2023-01-26T02:55:18.218Z,101131.19
2023-01-26T02:57:45.734Z,101129.25
2023-01-26T03:00:19.235Z,101137.91
2023-01-26T03:02:47.778Z,101135.97
2023-01-26T03:05:15.154Z,101131.13
2023-01-26T03:07:42.215Z,101127.41
2023-01-26T03:10:10.504Z,101116.09
2023-01-26T03:12:37.619Z,101117.09
2023-01-26T03:15:24.041Z,101117.88
2023-01-26T03:18:12.054Z,101119.13
2023-01-26T03:20:57.968Z,101116.09
2023-01-26T03:23:43.345Z,101105.03
2023-01-26T03:26:31.074Z,101106.03
2023-01-26T03:28:57.733Z,101104.84
2023-01-26T03:31:24.445Z,101104.41
2023-01-26T03:33:52.543Z,101103.91
2023-01-26T03:36:19.367Z,101104.06
2023-01-26T03:38:46.070Z,101103.56
2023-01-26T03:41:31.800Z,101093.81
2023-01-26T03:44:18.766Z,101091.75
2023-01-26T03:47:04.259Z,101087.38
2023-01-26T03:49:49.466Z,101083.84
2023-01-26T03:52:34.830Z,101085.38
2023-01-26T03:55:21.148Z,101087.22
2023-01-26T03:57:48.735Z,101088.56
2023-01-26T04:00:15.943Z,101078.31
2023-01-26T04:03:03.581Z,101079.53
2023-01-26T04:05:48.872Z,101073.72
2023-01-26T04:08:24.577Z,101073.84
2023-01-26T04:10:57.092Z,101077.13
2023-01-26T04:13:43.755Z,101075.28
2023-01-26T04:16:36.065Z,101076.13
2023-01-26T04:19:21.389Z,101075.63
2023-01-26T04:21:48.045Z,101078.28
2023-01-26T04:24:22.143Z,101075.47
2023-01-26T04:26:53.269Z,101082.91
2023-01-26T04:29:24.271Z,101074.94
2023-01-26T04:31:51.407Z,101074.94
2023-01-26T04:34:20.699Z,101071.97
2023-01-26T04:36:47.427Z,101059.94
2023-01-26T04:39:15.899Z,101058.56
2023-01-26T04:41:47.079Z,101058.53
2023-01-26T04:44:16.799Z,101052.72
2023-01-26T04:46:43.530Z,101054.97
2023-01-26T04:49:12.957Z,101044.19
2023-01-26T04:51:39.906Z,101039.63
2023-01-26T04:54:06.765Z,101037.63
2023-01-26T04:56:37.081Z,101036.31
2023-01-26T04:59:06.980Z,101032.38
2023-01-26T05:01:35.810Z,101029.03
2023-01-26T05:04:06.142Z,101040.66
2023-01-26T05:06:33.963Z,101025.91
2023-01-26T05:09:00.760Z,101031.09
2023-01-26T05:11:28.221Z,101032.50
2023-01-26T05:14:13.309Z,101032.91
2023-01-26T05:17:18.206Z,101028.72
2023-01-26T05:19:59.440Z,101024.44
2023-01-26T05:22:40.010Z,101024.06
2023-01-26T05:25:29.649Z,101024.00
2023-01-26T05:28:02.006Z,101023.34
2023-01-26T05:30:29.256Z,101024.31
2023-01-26T05:33:01.571Z,101017.09
2023-01-26T05:35:28.535Z,101019.25
2023-01-26T05:37:56.192Z,101019.06
2023-01-26T05:40:24.767Z,101022.06
2023-01-26T05:42:53.178Z,101025.56
2023-01-26T05:48:08.709Z,101031.22
2023-01-26T05:50:35.563Z,101031.00
2023-01-26T05:53:13.844Z,101033.38
2023-01-26T05:55:40.592Z,101029.09
2023-01-26T05:58:07.403Z,101037.81
2023-01-26T06:00:34.044Z,101042.91
2023-01-26T06:03:07.609Z,101035.09
2023-01-26T06:05:34.686Z,101038.09
2023-01-26T06:08:07.643Z,101033.59
2023-01-26T06:10:48.410Z,101035.78
2023-01-26T06:13:44.068Z,101042.91
2023-01-26T06:16:20.914Z,101048.88
2023-01-26T06:18:49.878Z,101054.34
2023-01-26T06:21:17.711Z,101054.66
2023-01-26T06:23:44.474Z,101056.88
2023-01-26T06:26:11.997Z,101059.00
2023-01-26T06:28:39.180Z,101061.28
2023-01-26T06:31:08.191Z,101065.13
2023-01-26T06:33:37.048Z,101066.50
2023-01-26T06:36:06.110Z,101074.13
2023-01-26T06:38:33.151Z,101075.78
2023-01-26T06:41:05.174Z,101067.50
2023-01-26T06:43:34.218Z,101067.50
2023-01-26T06:46:02.546Z,101064.03
2023-01-26T06:48:32.180Z,101058.66
2023-01-26T06:51:19.406Z,101062.97
2023-01-26T06:53:57.920Z,101067.53
2023-01-26T06:56:32.677Z,101066.56
2023-01-26T06:59:15.546Z,101075.47
2023-01-26T07:02:20.720Z,101067.06
2023-01-26T07:04:48.419Z,101065.03
2023-01-26T07:07:15.460Z,101068.91
2023-01-26T07:09:42.390Z,101071.53
2023-01-26T07:12:09.442Z,101081.44
2023-01-26T07:14:36.162Z,101077.97
2023-01-26T07:17:03.126Z,101070.16
2023-01-26T07:19:31.388Z,101065.53
2023-01-26T07:21:58.155Z,101074.47
2023-01-26T07:24:25.291Z,101075.00
2023-01-26T07:26:52.167Z,101075.03
2023-01-26T07:29:19.038Z,101084.16
2023-01-26T07:31:45.786Z,101079.44
2023-01-26T07:34:12.909Z,101080.81
2023-01-26T07:36:39.913Z,101079.53
2023-01-26T07:39:08.548Z,101088.50
2023-01-26T07:41:35.526Z,101078.38
2023-01-26T07:44:12.584Z,101088.47
2023-01-26T07:46:39.992Z,101078.50
2023-01-26T07:49:07.110Z,101078.84
2023-01-26T07:51:33.992Z,101087.31
2023-01-26T07:54:00.701Z,101089.59
2023-01-26T07:56:27.304Z,101089.09
2023-01-26T07:58:55.138Z,101086.81
2023-01-26T08:01:22.251Z,101087.31
2023-01-26T08:03:53.517Z,101087.94
2023-01-26T08:06:21.251Z,101090.13
2023-01-26T08:08:51.114Z,101090.59
2023-01-26T08:11:19.341Z,101087.50
2023-01-26T08:13:45.973Z,101087.16
2023-01-26T08:16:13.106Z,101090.47
2023-01-26T08:18:44.985Z,101090.16
2023-01-26T08:21:13.499Z,101093.56
2023-01-26T08:23:40.374Z,101096.41
2023-01-26T08:26:09.861Z,101092.13
2023-01-26T08:28:36.968Z,101097.41
2023-01-26T08:31:12.061Z,101097.41
2023-01-26T08:33:40.146Z,101098.41
2023-01-26T08:36:10.483Z,101109.06
2023-01-26T08:38:37.264Z,101105.38
2023-01-26T08:41:04.770Z,101113.50
2023-01-26T08:43:31.371Z,101109.16
2023-01-26T08:45:58.372Z,101109.34
2023-01-26T08:48:25.177Z,101116.16
2023-01-26T08:51:03.259Z,101124.47
2023-01-26T08:53:32.381Z,101122.28
2023-01-26T08:56:03.007Z,101114.69
2023-01-26T08:58:29.973Z,101113.75
2023-01-26T09:00:56.599Z,101118.09
2023-01-26T09:03:23.245Z,101112.97
2023-01-26T09:05:49.898Z,101112.97
2023-01-26T09:08:16.544Z,101117.94
2023-01-26T09:10:45.321Z,101121.06
2023-01-26T09:13:11.984Z,101114.59
2023-01-26T09:15:38.907Z,101120.59
2023-01-26T09:18:05.847Z,101116.47
2023-01-26T09:20:32.555Z,101122.53
2023-01-26T09:22:59.159Z,101114.25
2023-01-26T09:25:25.850Z,101119.25
2023-01-26T09:27:52.565Z,101114.47
2023-01-26T09:30:19.254Z,101110.97
2023-01-26T09:32:45.961Z,101115.91
2023-01-26T09:35:14.498Z,101123.53
2023-01-26T09:37:43.107Z,101128.84
2023-01-26T09:40:18.143Z,101128.25
2023-01-26T09:42:59.873Z,101125.47
2023-01-26T09:45:40.848Z,101125.59
2023-01-26T09:48:19.706Z,101120.59
2023-01-26T09:51:13.262Z,101117.09
2023-01-26T09:54:19.069Z,101120.19
2023-01-26T09:56:45.746Z,101119.88
2023-01-26T09:59:28.041Z,101108.72
2023-01-26T10:02:17.815Z,101110.50
2023-01-26T10:04:49.308Z,101111.97
2023-01-26T10:07:15.964Z,101109.91
2023-01-26T10:09:50.893Z,101107.25
2023-01-26T10:12:28.521Z,101101.28
2023-01-26T10:15:02.894Z,101104.41
2023-01-26T10:17:35.146Z,101097.91
2023-01-26T10:20:17.830Z,101093.41
2023-01-26T10:22:47.441Z,101103.56
2023-01-26T10:25:33.699Z,101096.00
2023-01-26T10:28:07.231Z,101100.41
2023-01-26T10:30:33.913Z,101094.97
2023-01-26T10:33:00.623Z,101089.75
2023-01-26T10:35:27.460Z,101089.00
2023-01-26T10:37:54.204Z,101084.66
2023-01-26T10:40:21.454Z,101099.75
2023-01-26T10:42:59.275Z,101085.47
2023-01-26T10:45:31.681Z,101084.63
2023-01-26T10:48:16.273Z,101088.19
2023-01-26T10:50:43.001Z,101085.66
2023-01-26T10:53:17.278Z,101075.50
2023-01-26T10:55:43.897Z,101075.69
2023-01-26T10:58:41.688Z,101078.41
2023-01-26T11:01:15.465Z,101072.09
2023-01-26T11:03:56.980Z,101080.00
2023-01-26T11:06:28.124Z,101066.25
2023-01-26T11:09:07.844Z,101068.16
2023-01-26T11:11:34.413Z,101069.09
2023-01-26T11:14:21.441Z,101071.56
2023-01-26T11:16:55.691Z,101060.84
2023-01-26T11:19:44.212Z,101064.16
2023-01-26T11:22:20.740Z,101057.31
2023-01-26T11:25:02.947Z,101057.31
2023-01-26T11:27:43.271Z,101051.72
2023-01-26T11:30:23.199Z,101051.13
2023-01-26T11:32:55.685Z,101057.31
2023-01-26T11:35:40.656Z,101054.56
2023-01-26T11:38:31.847Z,101051.78
2023-01-26T11:41:24.883Z,101051.31
2023-01-26T11:44:28.165Z,101044.44
2023-01-26T11:47:03.302Z,101039.91
2023-01-26T11:50:02.583Z,101027.06
2023-01-26T11:52:55.975Z,101026.06
2023-01-26T11:55:48.326Z,101020.47
2023-01-26T11:58:32.899Z,101026.22
2023-01-26T12:01:03.306Z,101029.16
2023-01-26T12:03:47.552Z,101019.91
2023-01-26T12:06:20.257Z,101019.47
2023-01-26T12:08:59.982Z,101018.44
2023-01-26T12:11:40.854Z,101018.94
2023-01-26T12:14:21.270Z,101014.59
2023-01-26T12:17:17.979Z,101021.19
2023-01-26T12:20:23.069Z,101015.41
2023-01-26T12:22:59.308Z,101017.25
2023-01-26T12:25:32.905Z,101006.75
2023-01-26T12:28:12.973Z,101006.16
2023-01-26T12:31:07.979Z,101004.47
2023-01-26T12:33:36.277Z,101008.22
2023-01-26T12:36:33.334Z,100996.34
2023-01-26T12:39:13.229Z,100998.78
2023-01-26T12:42:17.278Z,100990.38
2023-01-26T12:44:51.880Z,100986.66
2023-01-26T12:47:34.358Z,100982.13
2023-01-26T12:50:30.171Z,100987.25
2023-01-26T12:53:21.782Z,100988.56
2023-01-26T12:56:14.449Z,100975.78
2023-01-26T12:58:45.281Z,100979.13
2023-01-26T13:01:16.070Z,100970.34
2023-01-26T13:03:45.991Z,100968.34
2023-01-26T13:06:12.546Z,100973.09
2023-01-26T13:08:51.512Z,100978.53
2023-01-26T13:11:56.991Z,100967.97
2023-01-26T13:14:29.173Z,100969.72
2023-01-26T13:16:56.607Z,100968.38
2023-01-26T13:19:41.946Z,100975.28
2023-01-26T13:22:24.034Z,100978.31
2023-01-26T13:24:56.705Z,100968.25
2023-01-26T13:27:30.899Z,100975.34
2023-01-26T13:29:57.715Z,100975.94
2023-01-26T13:32:24.371Z,100977.59
2023-01-26T13:35:00.321Z,100974.53
2023-01-26T13:37:53.365Z,100974.88
2023-01-26T13:40:25.177Z,100977.28
2023-01-26T13:43:06.081Z,100970.53
2023-01-26T13:45:43.971Z,100975.94
2023-01-26T13:48:16.460Z,100969.38
2023-01-26T13:50:43.375Z,100976.69
2023-01-26T13:53:28.145Z,100975.63
2023-01-26T13:55:58.899Z,100973.03
2023-01-26T13:58:26.294Z,100976.69
2023-01-26T14:00:59.493Z,100979.31
2023-01-26T14:03:26.380Z,100977.38
2023-01-26T14:06:00.591Z,100975.06
2023-01-26T14:08:27.686Z,100982.63
2023-01-26T14:10:55.523Z,100986.00
2023-01-26T14:13:38.055Z,100996.44
2023-01-26T14:16:06.385Z,100996.63
2023-01-26T14:18:33.303Z,100987.91
2023-01-26T14:21:05.766Z,100985.81
2023-01-26T14:23:36.799Z,100983.47
2023-01-26T14:26:10.755Z,100987.00
2023-01-26T14:28:42.581Z,100983.88
2023-01-26T14:31:26.527Z,100990.19
2023-01-26T14:33:57.619Z,100985.44
2023-01-26T14:36:27.732Z,100988.56
2023-01-26T14:38:55.988Z,100993.28
2023-01-26T14:41:31.686Z,100993.34
2023-01-26T14:44:01.846Z,100996.97
2023-01-26T14:46:38.623Z,100997.72
2023-01-26T14:49:18.492Z,101005.16
2023-01-26T14:51:47.423Z,101011.78
2023-01-26T14:54:32.222Z,101013.44
2023-01-26T14:57:00.305Z,101016.38
2023-01-26T14:59:37.507Z,101016.00
2023-01-26T15:02:17.742Z,101013.16
2023-01-26T15:04:50.511Z,101010.19
2023-01-26T15:07:37.468Z,101018.47
2023-01-26T15:10:26.181Z,101024.78
2023-01-26T15:13:07.026Z,101018.09
2023-01-26T15:15:39.695Z,101017.66
2023-01-26T15:18:18.817Z,101020.19
2023-01-26T15:21:00.695Z,101022.50
2023-01-26T15:23:35.930Z,101026.50
2023-01-26T15:26:30.283Z,101029.47
2023-01-26T15:29:07.050Z,101032.38
2023-01-26T15:31:39.680Z,101022.72
2023-01-26T15:34:06.668Z,101031.66
2023-01-26T15:36:50.731Z,101025.50
2023-01-26T15:39:19.537Z,101023.44
2023-01-26T15:42:01.693Z,101010.88
2023-01-26T15:44:28.406Z,101004.19
2023-01-26T15:46:56.487Z,101004.28
2023-01-26T15:49:23.435Z,101009.50
2023-01-26T15:51:51.178Z,101004.88
2023-01-26T15:54:19.181Z,101009.97
2023-01-26T15:56:45.826Z,100997.25
2023-01-26T15:59:12.472Z,100997.00
2023-01-26T16:01:39.270Z,100997.72
2023-01-26T16:04:05.880Z,100996.50
2023-01-26T16:06:33.542Z,101006.38
2023-01-26T16:09:00.188Z,101003.88
2023-01-26T16:11:29.915Z,101004.84
2023-01-26T16:14:03.376Z,101003.03
2023-01-26T16:16:31.998Z,100996.81
2023-01-26T16:18:58.968Z,101001.13
2023-01-26T16:21:33.023Z,101002.06
2023-01-26T16:24:01.259Z,101004.41
2023-01-26T16:26:28.964Z,101005.22
2023-01-26T16:28:56.247Z,101008.75
2023-01-26T16:31:31.570Z,101005.28
2023-01-26T16:34:00.083Z,101007.75
2023-01-26T16:36:26.800Z,101003.50
2023-01-26T16:38:53.448Z,101008.97
2023-01-26T16:41:20.055Z,101007.44
2023-01-26T16:43:46.700Z,101010.13
2023-01-26T16:46:13.286Z,101012.13
2023-01-26T16:48:40.657Z,101009.13
2023-01-26T16:51:29.385Z,101009.03
2023-01-26T16:53:56.879Z,101002.91
2023-01-26T16:56:24.686Z,101000.75
2023-01-26T16:58:51.717Z,101004.06
2023-01-26T17:01:22.384Z,101002.41
2023-01-26T17:03:49.863Z,101004.97
2023-01-26T17:06:18.074Z,101010.59
2023-01-26T17:08:45.383Z,101013.75
2023-01-26T17:11:22.876Z,101012.31
2023-01-26T17:13:49.939Z,101011.31
2023-01-26T17:16:19.646Z,101013.91
2023-01-26T17:18:47.415Z,101012.88
2023-01-26T17:21:16.289Z,101008.06
2023-01-26T17:23:46.294Z,101013.16
2023-01-26T17:26:15.356Z,101013.72
2023-01-26T17:28:46.438Z,101016.84
2023-01-26T17:31:17.645Z,101025.50
2023-01-26T17:33:46.790Z,101025.56
2023-01-26T17:36:15.260Z,101023.84
2023-01-26T17:38:42.452Z,101037.75
2023-01-26T17:41:09.594Z,101034.34
2023-01-26T17:43:36.441Z,101029.81
2023-01-26T17:46:14.711Z,101026.34
2023-01-26T17:48:44.207Z,101029.47
2023-01-26T17:51:17.691Z,101027.69
2023-01-26T17:53:46.659Z,101040.78
2023-01-26T17:56:18.988Z,101044.78
2023-01-26T17:58:54.261Z,101035.78
2023-01-26T18:01:23.269Z,101036.94
2023-01-26T18:03:50.045Z,101037.03
2023-01-26T18:06:17.452Z,101040.88
2023-01-26T18:08:44.117Z,101029.09
2023-01-26T18:11:13.068Z,101039.72
2023-01-26T18:13:40.054Z,101035.94
2023-01-26T18:16:08.064Z,101037.06
2023-01-26T18:18:35.079Z,101032.81
2023-01-26T18:21:19.824Z,101036.94
2023-01-26T18:23:47.506Z,101041.25
2023-01-26T18:26:16.017Z,101037.69
2023-01-26T18:28:43.998Z,101037.25
2023-01-26T18:31:19.722Z,101033.72
2023-01-26T18:33:47.025Z,101038.47
2023-01-26T18:36:16.080Z,101029.34
2023-01-26T18:38:44.564Z,101040.13
2023-01-26T18:41:13.265Z,101039.41
2023-01-26T18:43:40.232Z,101039.31
2023-01-26T18:46:07.585Z,101034.09
2023-01-26T18:48:35.263Z,101026.53
2023-01-26T18:51:02.717Z,101027.75
2023-01-26T18:53:29.891Z,101029.16
2023-01-26T18:56:12.425Z,101028.34
2023-01-26T18:58:40.076Z,101029.75
2023-01-26T19:01:13.140Z,101031.88
2023-01-26T19:03:42.248Z,101033.66
2023-01-26T19:06:09.565Z,101034.34
2023-01-26T19:08:36.204Z,101031.34
2023-01-26T19:11:07.964Z,101035.47
2023-01-26T19:13:34.664Z,101036.72
2023-01-26T19:16:01.836Z,101032.66
2023-01-26T19:18:28.803Z,101030.66
2023-01-26T19:20:57.775Z,101035.47
2023-01-26T19:23:24.778Z,101030.00
2023-01-26T19:25:51.541Z,101036.59
2023-01-26T19:28:18.548Z,101026.22
2023-01-26T19:30:45.171Z,101033.88
2023-01-26T19:33:23.928Z,101029.22
2023-01-26T19:35:52.494Z,101028.22
2023-01-26T19:38:21.031Z,101033.16
2023-01-26T19:40:49.376Z,101037.00
2023-01-26T19:43:18.915Z,101035.22
2023-01-26T19:45:54.200Z,101036.00
2023-01-26T19:48:23.358Z,101041.19
2023-01-26T19:50:59.172Z,101034.16
2023-01-26T19:53:26.980Z,101030.53
2023-01-26T19:55:53.708Z,101038.31
2023-01-26T19:58:20.341Z,101033.16
2023-01-26T20:00:46.947Z,101039.13
2023-01-26T20:03:13.553Z,101039.69
2023-01-26T20:05:40.301Z,101024.06
2023-01-26T20:08:06.890Z,101028.53
2023-01-26T20:10:33.675Z,101033.78
2023-01-26T20:13:01.234Z,101031.75
2023-01-26T20:15:27.976Z,101026.31
2023-01-26T20:17:54.552Z,101034.31
2023-01-26T20:20:21.196Z,101035.47
2023-01-26T20:22:47.754Z,101033.31
2023-01-26T20:25:14.558Z,101029.81
2023-01-26T20:27:41.209Z,101032.53
2023-01-26T20:30:08.796Z,101034.16
2023-01-26T20:32:35.551Z,101029.19
2023-01-26T20:35:02.439Z,101029.75
2023-01-26T20:37:30.044Z,101027.34
2023-01-26T20:39:56.713Z,101021.28
2023-01-26T20:42:23.442Z,101021.41
2023-01-26T20:44:50.864Z,101019.94
2023-01-26T20:47:17.694Z,101016.28
2023-01-26T20:49:44.400Z,101015.97
2023-01-26T20:52:11.151Z,101019.44
2023-01-26T20:54:37.823Z,101011.97
2023-01-26T20:57:04.433Z,101009.59
2023-01-26T20:59:31.074Z,101006.44
2023-01-26T21:01:57.896Z,101007.00
2023-01-26T21:04:24.988Z,101008.31
2023-01-26T21:06:51.622Z,101004.59
2023-01-26T21:09:18.635Z,101005.59
2023-01-26T21:11:45.299Z,101008.22
2023-01-26T21:14:13.572Z,101002.94
2023-01-26T21:16:40.572Z,101000.56
2023-01-26T21:19:07.309Z,100999.75
2023-01-26T21:21:33.983Z,100993.13
2023-01-26T21:24:00.728Z,100988.38
2023-01-26T21:26:30.487Z,100994.69
2023-01-26T21:28:59.681Z,100992.03
2023-01-26T21:31:30.302Z,100988.19
2023-01-26T21:33:58.539Z,100991.19
2023-01-26T21:36:27.465Z,100991.34
2023-01-26T21:38:56.355Z,100987.03
2023-01-26T21:41:45.579Z,100983.06
2023-01-26T21:44:24.822Z,100993.03
2023-01-26T21:46:54.346Z,100985.66
2023-01-26T21:49:21.744Z,100978.44
2023-01-26T21:52:07.081Z,100981.56
2023-01-26T21:54:34.793Z,100972.47
2023-01-26T21:57:02.795Z,100980.06
2023-01-26T21:59:30.589Z,100964.69
2023-01-26T22:01:58.407Z,100963.13
2023-01-26T22:04:28.748Z,100965.44
2023-01-26T22:06:56.620Z,100971.28
2023-01-26T22:09:24.132Z,100970.94
2023-01-26T22:11:51.714Z,100970.47
2023-01-26T22:14:23.546Z,100969.09
2023-01-26T22:16:50.295Z,100960.09
2023-01-26T22:19:17.208Z,100950.25
2023-01-26T22:21:44.745Z,100955.31
2023-01-26T22:24:14.298Z,100950.78
2023-01-26T22:26:41.781Z,100957.09
2023-01-26T22:29:10.909Z,100960.38
2023-01-26T22:31:37.613Z,100957.06
2023-01-26T22:34:04.347Z,100955.09
2023-01-26T22:36:31.327Z,100956.47
2023-01-26T22:38:59.665Z,100956.09
2023-01-26T22:41:28.529Z,100956.38
2023-01-26T22:43:57.766Z,100958.56
2023-01-26T22:46:25.866Z,100953.81
2023-01-26T22:48:53.313Z,100958.19
2023-01-26T22:51:22.589Z,100956.09
2023-01-26T22:53:50.772Z,100949.34
2023-01-26T22:56:18.235Z,100944.09
2023-01-26T22:58:57.756Z,100934.34
2023-01-26T23:01:27.782Z,100938.59
2023-01-26T23:03:55.540Z,100937.81
2023-01-26T23:06:22.526Z,100935.88
2023-01-26T23:08:49.699Z,100933.59
2023-01-26T23:11:34.600Z,100942.22
2023-01-26T23:14:01.267Z,100940.81
2023-01-26T23:16:28.429Z,100939.97
2023-01-26T23:18:57.443Z,100939.00
2023-01-26T23:21:25.597Z,100938.63
2023-01-26T23:23:52.552Z,100941.91
2023-01-26T23:26:20.434Z,100937.81
2023-01-26T23:28:47.102Z,100941.56
2023-01-26T23:31:16.058Z,100940.53
2023-01-26T23:33:43.166Z,100934.63
2023-01-26T23:36:11.524Z,100928.13
2023-01-26T23:38:38.293Z,100937.91
2023-01-26T23:41:05.499Z,100935.09
2023-01-26T23:43:32.321Z,100935.31
2023-01-26T23:45:59.101Z,100932.34
2023-01-26T23:48:26.739Z,100929.19
2023-01-26T23:51:01.616Z,100930.50
2023-01-26T23:53:29.664Z,100936.59
2023-01-26T23:55:58.666Z,100932.69
2023-01-26T23:58:25.362Z,100929.66
